NKS714 KPIT-KEWR
Flight info
| Callsign | NKS714 |
|---|---|
| Flight time | 0h 53m |
| Altitude | 31000 |
| Route | EWC WOMBT TOSTR SLT FQM3 |
| Aircraft | A21N/M-SDE2E3FGHIRWXY/LB1 |
Departure
| Time | 2026-05-05 01:14 |
|---|---|
| Airport | Pittsburgh International Airport (KPIT) |
Arrival
| Time | 2026-05-05 02:07 |
|---|---|
| Airport | Newark Liberty International Airport (KEWR) |
| Time | Latitude | Longitude | Altitude | Speed | Heading |
|---|---|---|---|---|---|
| 2026-05-05 00:36 | 40.49278 | -80.24220 | 1153 ft | 0 kts | 2° |
| 2026-05-05 01:00 | 40.49229 | -80.24220 | 1159 ft | 0 kts | 86° |
| 2026-05-05 01:06 | 40.49229 | -80.24219 | 1159 ft | 1 kts | 86° |
| 2026-05-05 01:06 | 40.49227 | -80.24197 | 1159 ft | 4 kts | 103° |
| 2026-05-05 01:07 | 40.49220 | -80.24158 | 1159 ft | 5 kts | 106° |
| 2026-05-05 01:07 | 40.49209 | -80.24101 | 1159 ft | 7 kts | 97° |
| 2026-05-05 01:07 | 40.49208 | -80.24084 | 1160 ft | 0 kts | 93° |
| 2026-05-05 01:07 | 40.49208 | -80.24080 | 1160 ft | 0 kts | 93° |
| 2026-05-05 01:08 | 40.49207 | -80.24066 | 1160 ft | 3 kts | 93° |
| 2026-05-05 01:08 | 40.49206 | -80.24027 | 1160 ft | 5 kts | 93° |
| 2026-05-05 01:08 | 40.49204 | -80.23972 | 1159 ft | 7 kts | 90° |
| 2026-05-05 01:09 | 40.49216 | -80.23906 | 1157 ft | 7 kts | 37° |
| 2026-05-05 01:09 | 40.49277 | -80.23897 | 1154 ft | 16 kts | 2° |
| 2026-05-05 01:09 | 40.49405 | -80.23892 | 1162 ft | 20 kts | 1° |
| 2026-05-05 01:09 | 40.49546 | -80.23886 | 1169 ft | 22 kts | 2° |
| 2026-05-05 01:10 | 40.49703 | -80.23876 | 1178 ft | 24 kts | 2° |
| 2026-05-05 01:10 | 40.49816 | -80.23871 | 1188 ft | 0 kts | 359° |
| 2026-05-05 01:10 | 40.49826 | -80.23871 | 1188 ft | 2 kts | 359° |
| 2026-05-05 01:10 | 40.49828 | -80.23871 | 1188 ft | 0 kts | 359° |
| 2026-05-05 01:11 | 40.49854 | -80.23871 | 1176 ft | 4 kts | 1° |
| 2026-05-05 01:11 | 40.49975 | -80.23867 | 1160 ft | 12 kts | 2° |
| 2026-05-05 01:11 | 40.50037 | -80.23807 | 1159 ft | 13 kts | 82° |
| 2026-05-05 01:11 | 40.50035 | -80.23682 | 1159 ft | 14 kts | 92° |
| 2026-05-05 01:12 | 40.50030 | -80.23544 | 1158 ft | 16 kts | 92° |
| 2026-05-05 01:12 | 40.50025 | -80.23394 | 1159 ft | 17 kts | 92° |
| 2026-05-05 01:12 | 40.50034 | -80.23263 | 1159 ft | 12 kts | 52° |
| 2026-05-05 01:12 | 40.50082 | -80.23306 | 1156 ft | 10 kts | 302° |
| 2026-05-05 01:13 | 40.50126 | -80.23397 | 1155 ft | 14 kts | 298° |
| 2026-05-05 01:13 | 40.50141 | -80.23530 | 1155 ft | 16 kts | 273° |
| 2026-05-05 01:13 | 40.50152 | -80.23957 | 1157 ft | 81 kts | 272° |
| 2026-05-05 01:13 | 40.50177 | -80.24959 | 1156 ft | 135 kts | 271° |
| 2026-05-05 01:14 | 40.50215 | -80.26380 | 1209 ft | 169 kts | 269° |
| 2026-05-05 01:14 | 40.50276 | -80.27905 | 1750 ft | 170 kts | 270° |
| 2026-05-05 01:14 | 40.50644 | -80.29409 | 2347 ft | 182 kts | 298° |
| 2026-05-05 01:14 | 40.51600 | -80.30620 | 2848 ft | 199 kts | 310° |
| 2026-05-05 01:15 | 40.52734 | -80.31767 | 3284 ft | 220 kts | 321° |
| 2026-05-05 01:15 | 40.54312 | -80.32330 | 3712 ft | 254 kts | 347° |
| 2026-05-05 01:15 | 40.56175 | -80.32463 | 4123 ft | 280 kts | 351° |
| 2026-05-05 01:15 | 40.58168 | -80.32543 | 4833 ft | 293 kts | 355° |
| 2026-05-05 01:16 | 40.60189 | -80.32022 | 5837 ft | 298 kts | 11° |
| 2026-05-05 01:16 | 40.62131 | -80.31081 | 6847 ft | 297 kts | 14° |
| 2026-05-05 01:16 | 40.64064 | -80.30110 | 7726 ft | 298 kts | 13° |
| 2026-05-05 01:16 | 40.66013 | -80.29142 | 8574 ft | 300 kts | 13° |
| 2026-05-05 01:17 | 40.67979 | -80.28176 | 9378 ft | 304 kts | 13° |
| 2026-05-05 01:17 | 40.69963 | -80.27201 | 9850 ft | 305 kts | 12° |
| 2026-05-05 01:17 | 40.71992 | -80.26221 | 10009 ft | 323 kts | 13° |
| 2026-05-05 01:17 | 40.74206 | -80.25165 | 10060 ft | 353 kts | 13° |
| 2026-05-05 01:18 | 40.76606 | -80.24016 | 10062 ft | 377 kts | 13° |
| 2026-05-05 01:18 | 40.79076 | -80.22819 | 10051 ft | 378 kts | 13° |
| 2026-05-05 01:18 | 40.81510 | -80.21483 | 10011 ft | 384 kts | 22° |
| 2026-05-05 01:18 | 40.83668 | -80.19335 | 10009 ft | 396 kts | 41° |
| 2026-05-05 01:19 | 40.85431 | -80.16510 | 10030 ft | 400 kts | 48° |
| 2026-05-05 01:19 | 40.87102 | -80.13571 | 10029 ft | 400 kts | 49° |
| 2026-05-05 01:19 | 40.88772 | -80.10629 | 10125 ft | 400 kts | 49° |
| 2026-05-05 01:19 | 40.90464 | -80.07709 | 10779 ft | 401 kts | 49° |
| 2026-05-05 01:20 | 40.92171 | -80.04787 | 11664 ft | 402 kts | 48° |
| 2026-05-05 01:20 | 40.93892 | -80.01865 | 12562 ft | 403 kts | 49° |
| 2026-05-05 01:20 | 40.95614 | -79.98927 | 13400 ft | 406 kts | 49° |
| 2026-05-05 01:20 | 40.97347 | -79.95951 | 14144 ft | 410 kts | 49° |
| 2026-05-05 01:21 | 40.98505 | -79.93972 | 14629 ft | 412 kts | 49° |
| 2026-05-05 01:21 | 41.00286 | -79.90974 | 15330 ft | 416 kts | 49° |
| 2026-05-05 01:21 | 41.02085 | -79.87959 | 16028 ft | 420 kts | 49° |
| 2026-05-05 01:21 | 41.03885 | -79.84883 | 16720 ft | 424 kts | 50° |
| 2026-05-05 01:22 | 41.05686 | -79.81777 | 17394 ft | 428 kts | 50° |
| 2026-05-05 01:22 | 41.07478 | -79.78598 | 18051 ft | 433 kts | 54° |
| 2026-05-05 01:22 | 41.08907 | -79.75060 | 18642 ft | 438 kts | 64° |
| 2026-05-05 01:22 | 41.10125 | -79.71350 | 19251 ft | 440 kts | 66° |
| 2026-05-05 01:23 | 41.11342 | -79.67607 | 19834 ft | 444 kts | 65° |
| 2026-05-05 01:23 | 41.12587 | -79.63842 | 20390 ft | 448 kts | 65° |
| 2026-05-05 01:23 | 41.13842 | -79.60050 | 20949 ft | 450 kts | 65° |
| 2026-05-05 01:23 | 41.15096 | -79.56237 | 21482 ft | 453 kts | 65° |
| 2026-05-05 01:24 | 41.16355 | -79.52397 | 22010 ft | 455 kts | 65° |
| 2026-05-05 01:24 | 41.17622 | -79.48528 | 22505 ft | 458 kts | 65° |
| 2026-05-05 01:24 | 41.18895 | -79.44637 | 23000 ft | 460 kts | 65° |
| 2026-05-05 01:24 | 41.20169 | -79.40729 | 23461 ft | 462 kts | 65° |
| 2026-05-05 01:25 | 41.21445 | -79.36815 | 23903 ft | 463 kts | 65° |
| 2026-05-05 01:25 | 41.22730 | -79.32876 | 24300 ft | 465 kts | 65° |
| 2026-05-05 01:25 | 41.24017 | -79.28914 | 24680 ft | 468 kts | 65° |
| 2026-05-05 01:25 | 41.25307 | -79.24934 | 25052 ft | 470 kts | 65° |
| 2026-05-05 01:26 | 41.26601 | -79.20934 | 25417 ft | 473 kts | 65° |
| 2026-05-05 01:26 | 41.27897 | -79.16903 | 25767 ft | 476 kts | 65° |
| 2026-05-05 01:26 | 41.29206 | -79.12844 | 26088 ft | 479 kts | 65° |
| 2026-05-05 01:26 | 41.30525 | -79.08756 | 26467 ft | 481 kts | 65° |
| 2026-05-05 01:27 | 41.31840 | -79.04670 | 26957 ft | 480 kts | 65° |
| 2026-05-05 01:27 | 41.33129 | -79.00655 | 27491 ft | 477 kts | 65° |
| 2026-05-05 01:27 | 41.34451 | -78.96552 | 27962 ft | 477 kts | 65° |
| 2026-05-05 01:27 | 41.35749 | -78.92498 | 28427 ft | 475 kts | 65° |
| 2026-05-05 01:28 | 41.37026 | -78.88506 | 28869 ft | 475 kts | 65° |
| 2026-05-05 01:28 | 41.38319 | -78.84464 | 29307 ft | 474 kts | 65° |
| 2026-05-05 01:28 | 41.39610 | -78.80430 | 29755 ft | 473 kts | 65° |
| 2026-05-05 01:28 | 41.40896 | -78.76400 | 30123 ft | 472 kts | 65° |
| 2026-05-05 01:29 | 41.42184 | -78.72382 | 30466 ft | 472 kts | 65° |
| 2026-05-05 01:29 | 41.43469 | -78.68367 | 30811 ft | 472 kts | 65° |
| 2026-05-05 01:29 | 41.46030 | -78.60293 | 30835 ft | 472 kts | 65° |
| 2026-05-05 01:30 | 41.48581 | -78.52225 | 30803 ft | 472 kts | 65° |
| 2026-05-05 01:30 | 41.50482 | -78.43790 | 30786 ft | 477 kts | 83° |
| 2026-05-05 01:31 | 41.50687 | -78.34992 | 30827 ft | 478 kts | 89° |
| 2026-05-05 01:31 | 41.50795 | -78.26136 | 30811 ft | 477 kts | 88° |
| 2026-05-05 01:32 | 41.50914 | -78.17286 | 30819 ft | 477 kts | 88° |
| 2026-05-05 01:32 | 41.51054 | -78.08425 | 30813 ft | 477 kts | 88° |
| 2026-05-05 01:33 | 41.51190 | -77.99574 | 30811 ft | 478 kts | 89° |
| 2026-05-05 01:33 | 41.50402 | -77.90798 | 30814 ft | 476 kts | 100° |
| 2026-05-05 01:34 | 41.49140 | -77.82131 | 30808 ft | 476 kts | 100° |
| 2026-05-05 01:34 | 41.47904 | -77.73463 | 30809 ft | 476 kts | 100° |
| 2026-05-05 01:35 | 41.46670 | -77.64791 | 30803 ft | 476 kts | 100° |
| 2026-05-05 01:35 | 41.45435 | -77.56132 | 30801 ft | 476 kts | 100° |
| 2026-05-05 01:36 | 41.44177 | -77.47472 | 30802 ft | 476 kts | 100° |
| 2026-05-05 01:36 | 41.42923 | -77.38820 | 30798 ft | 475 kts | 101° |
| 2026-05-05 01:37 | 41.41667 | -77.30174 | 30800 ft | 476 kts | 100° |
| 2026-05-05 01:37 | 41.40413 | -77.21518 | 30777 ft | 475 kts | 100° |
| 2026-05-05 01:38 | 41.39152 | -77.12953 | 30787 ft | 468 kts | 101° |
| 2026-05-05 01:38 | 41.37876 | -77.04479 | 30798 ft | 470 kts | 101° |
| 2026-05-05 01:39 | 41.36610 | -76.95916 | 30804 ft | 472 kts | 101° |
| 2026-05-05 01:39 | 41.35330 | -76.87346 | 30779 ft | 472 kts | 101° |
| 2026-05-05 01:40 | 41.34693 | -76.83099 | 30650 ft | 462 kts | 101° |
| 2026-05-05 01:40 | 41.34050 | -76.78882 | 30323 ft | 468 kts | 102° |
| 2026-05-05 01:40 | 41.33134 | -76.74725 | 29945 ft | 466 kts | 109° |
| 2026-05-05 01:40 | 41.32067 | -76.70740 | 29104 ft | 463 kts | 110° |
| 2026-05-05 01:41 | 41.30955 | -76.66623 | 27988 ft | 470 kts | 110° |
| 2026-05-05 01:41 | 41.29862 | -76.62566 | 27297 ft | 472 kts | 110° |
| 2026-05-05 01:41 | 41.28739 | -76.58411 | 26589 ft | 470 kts | 110° |
| 2026-05-05 01:41 | 41.27636 | -76.54338 | 25839 ft | 469 kts | 110° |
| 2026-05-05 01:42 | 41.26530 | -76.50264 | 25128 ft | 467 kts | 110° |
| 2026-05-05 01:42 | 41.25444 | -76.46214 | 24420 ft | 465 kts | 110° |
| 2026-05-05 01:42 | 41.24366 | -76.42174 | 23729 ft | 463 kts | 110° |
| 2026-05-05 01:42 | 41.23287 | -76.38151 | 22992 ft | 461 kts | 110° |
| 2026-05-05 01:43 | 41.22209 | -76.34142 | 22248 ft | 459 kts | 110° |
| 2026-05-05 01:43 | 41.21134 | -76.30161 | 21550 ft | 455 kts | 110° |
| 2026-05-05 01:43 | 41.20071 | -76.26229 | 20917 ft | 452 kts | 111° |
| 2026-05-05 01:43 | 41.19007 | -76.22315 | 20274 ft | 449 kts | 111° |
| 2026-05-05 01:44 | 41.17950 | -76.18425 | 19692 ft | 446 kts | 111° |
| 2026-05-05 01:44 | 41.16893 | -76.14562 | 19142 ft | 444 kts | 111° |
| 2026-05-05 01:44 | 41.15840 | -76.10728 | 18611 ft | 442 kts | 111° |
| 2026-05-05 01:44 | 41.14795 | -76.06904 | 18107 ft | 437 kts | 111° |
| 2026-05-05 01:45 | 41.13762 | -76.03165 | 17852 ft | 424 kts | 112° |
| 2026-05-05 01:45 | 41.12761 | -75.99532 | 17843 ft | 418 kts | 112° |
| 2026-05-05 01:45 | 41.11768 | -75.95936 | 17713 ft | 411 kts | 112° |
| 2026-05-05 01:45 | 41.10789 | -75.92376 | 16886 ft | 413 kts | 111° |
| 2026-05-05 01:46 | 41.09797 | -75.88760 | 15910 ft | 421 kts | 111° |
| 2026-05-05 01:46 | 41.08817 | -75.85178 | 15464 ft | 415 kts | 111° |
| 2026-05-05 01:46 | 41.07844 | -75.81637 | 15190 ft | 405 kts | 111° |
| 2026-05-05 01:46 | 41.06865 | -75.78081 | 14931 ft | 405 kts | 111° |
| 2026-05-05 01:47 | 41.05913 | -75.74634 | 14659 ft | 403 kts | 111° |
| 2026-05-05 01:47 | 41.04938 | -75.71118 | 14333 ft | 401 kts | 111° |
| 2026-05-05 01:47 | 41.03970 | -75.67656 | 13993 ft | 400 kts | 111° |
| 2026-05-05 01:47 | 41.03022 | -75.64247 | 13653 ft | 399 kts | 111° |
| 2026-05-05 01:48 | 41.02062 | -75.60802 | 13279 ft | 398 kts | 111° |
| 2026-05-05 01:48 | 41.01098 | -75.57331 | 12958 ft | 395 kts | 111° |
| 2026-05-05 01:48 | 41.00161 | -75.53969 | 12950 ft | 395 kts | 111° |
| 2026-05-05 01:48 | 40.99196 | -75.50518 | 12980 ft | 395 kts | 111° |
| 2026-05-05 01:49 | 40.98242 | -75.47108 | 12986 ft | 395 kts | 111° |
| 2026-05-05 01:49 | 40.97298 | -75.43735 | 12990 ft | 395 kts | 111° |
| 2026-05-05 01:49 | 40.96334 | -75.40292 | 12978 ft | 394 kts | 111° |
| 2026-05-05 01:49 | 40.95390 | -75.36942 | 12977 ft | 382 kts | 111° |
| 2026-05-05 01:50 | 40.94461 | -75.33638 | 12983 ft | 391 kts | 111° |
| 2026-05-05 01:50 | 40.93517 | -75.30284 | 12818 ft | 385 kts | 111° |
| 2026-05-05 01:50 | 40.92572 | -75.26927 | 12270 ft | 383 kts | 112° |
| 2026-05-05 01:50 | 40.91655 | -75.23687 | 11909 ft | 369 kts | 112° |
| 2026-05-05 01:51 | 40.90772 | -75.20566 | 11542 ft | 355 kts | 112° |
| 2026-05-05 01:51 | 40.89924 | -75.17567 | 11178 ft | 342 kts | 112° |
| 2026-05-05 01:51 | 40.89106 | -75.14683 | 10849 ft | 329 kts | 112° |
| 2026-05-05 01:51 | 40.88313 | -75.11892 | 10340 ft | 324 kts | 112° |
| 2026-05-05 01:52 | 40.87525 | -75.09104 | 9745 ft | 322 kts | 112° |
| 2026-05-05 01:52 | 40.86811 | -75.06307 | 9114 ft | 323 kts | 102° |
| 2026-05-05 01:52 | 40.86762 | -75.03372 | 8524 ft | 318 kts | 78° |
| 2026-05-05 01:52 | 40.87481 | -75.00651 | 8037 ft | 311 kts | 61° |
| 2026-05-05 01:53 | 40.88493 | -74.98157 | 7536 ft | 306 kts | 58° |
| 2026-05-05 01:53 | 40.89533 | -74.95761 | 7106 ft | 305 kts | 58° |
| 2026-05-05 01:53 | 40.90609 | -74.93327 | 6636 ft | 308 kts | 58° |
| 2026-05-05 01:53 | 40.91697 | -74.90888 | 6232 ft | 308 kts | 58° |
| 2026-05-05 01:54 | 40.92791 | -74.88463 | 5844 ft | 305 kts | 58° |
| 2026-05-05 01:54 | 40.93882 | -74.86070 | 5462 ft | 304 kts | 58° |
| 2026-05-05 01:54 | 40.94985 | -74.83695 | 5092 ft | 301 kts | 58° |
| 2026-05-05 01:54 | 40.96086 | -74.81363 | 4930 ft | 297 kts | 58° |
| 2026-05-05 01:55 | 40.97188 | -74.79052 | 4948 ft | 297 kts | 58° |
| 2026-05-05 01:55 | 40.98296 | -74.76742 | 4976 ft | 298 kts | 58° |
| 2026-05-05 01:55 | 40.99305 | -74.74360 | 4952 ft | 296 kts | 72° |
| 2026-05-05 01:55 | 40.99645 | -74.71698 | 4907 ft | 293 kts | 93° |
| 2026-05-05 01:56 | 40.99575 | -74.69025 | 4693 ft | 290 kts | 97° |
| 2026-05-05 01:56 | 40.99447 | -74.66367 | 4436 ft | 288 kts | 98° |
| 2026-05-05 01:56 | 40.99323 | -74.63734 | 4182 ft | 287 kts | 98° |
| 2026-05-05 01:56 | 40.99201 | -74.61097 | 3967 ft | 286 kts | 97° |
| 2026-05-05 01:57 | 40.99083 | -74.58475 | 3958 ft | 286 kts | 97° |
| 2026-05-05 01:57 | 40.98966 | -74.55847 | 3976 ft | 284 kts | 98° |
| 2026-05-05 01:57 | 40.98857 | -74.53238 | 3975 ft | 285 kts | 97° |
| 2026-05-05 01:57 | 40.98749 | -74.50620 | 3985 ft | 285 kts | 97° |
| 2026-05-05 01:58 | 40.98639 | -74.47994 | 3988 ft | 286 kts | 97° |
| 2026-05-05 01:58 | 40.98524 | -74.45373 | 3994 ft | 285 kts | 97° |
| 2026-05-05 01:58 | 40.98406 | -74.42756 | 3985 ft | 285 kts | 97° |
| 2026-05-05 01:58 | 40.98288 | -74.40144 | 3989 ft | 285 kts | 97° |
| 2026-05-05 01:59 | 40.98174 | -74.37535 | 3988 ft | 284 kts | 97° |
| 2026-05-05 01:59 | 40.98063 | -74.34926 | 3984 ft | 284 kts | 97° |
| 2026-05-05 01:59 | 40.97950 | -74.32311 | 3993 ft | 284 kts | 97° |
| 2026-05-05 01:59 | 40.97830 | -74.29701 | 3977 ft | 284 kts | 97° |
| 2026-05-05 02:00 | 40.97704 | -74.27086 | 3982 ft | 286 kts | 97° |
| 2026-05-05 02:00 | 40.97584 | -74.24464 | 3997 ft | 285 kts | 97° |
| 2026-05-05 02:00 | 40.97235 | -74.21944 | 3831 ft | 275 kts | 117° |
| 2026-05-05 02:00 | 40.96220 | -74.19861 | 3587 ft | 265 kts | 140° |
| 2026-05-05 02:01 | 40.94819 | -74.18335 | 3366 ft | 259 kts | 149° |
| 2026-05-05 02:01 | 40.93373 | -74.16951 | 3118 ft | 256 kts | 149° |
| 2026-05-05 02:01 | 40.91939 | -74.15565 | 2982 ft | 255 kts | 150° |
| 2026-05-05 02:01 | 40.90529 | -74.14179 | 2994 ft | 247 kts | 149° |
| 2026-05-05 02:02 | 40.89197 | -74.12855 | 2981 ft | 235 kts | 149° |
| 2026-05-05 02:02 | 40.87874 | -74.11582 | 2976 ft | 235 kts | 150° |
| 2026-05-05 02:02 | 40.86536 | -74.10312 | 2996 ft | 237 kts | 150° |
| 2026-05-05 02:02 | 40.85197 | -74.09047 | 2995 ft | 237 kts | 150° |
| 2026-05-05 02:03 | 40.83816 | -74.07903 | 2874 ft | 229 kts | 167° |
| 2026-05-05 02:03 | 40.82338 | -74.07832 | 2659 ft | 206 kts | 201° |
| 2026-05-05 02:03 | 40.81089 | -74.08624 | 2440 ft | 195 kts | 212° |
| 2026-05-05 02:03 | 40.80341 | -74.09235 | 2306 ft | 184 kts | 213° |
| 2026-05-05 02:04 | 40.79297 | -74.10036 | 2156 ft | 164 kts | 210° |
| 2026-05-05 02:04 | 40.78345 | -74.10674 | 1921 ft | 143 kts | 207° |
| 2026-05-05 02:04 | 40.77241 | -74.11382 | 1602 ft | 123 kts | 207° |
| 2026-05-05 02:04 | 40.76731 | -74.11708 | 1519 ft | 123 kts | 206° |
| 2026-05-05 02:05 | 40.75963 | -74.12200 | 1347 ft | 123 kts | 206° |
| 2026-05-05 02:05 | 40.75174 | -74.12704 | 1188 ft | 125 kts | 206° |
| 2026-05-05 02:05 | 40.74375 | -74.13213 | 1037 ft | 128 kts | 205° |
| 2026-05-05 02:05 | 40.73574 | -74.13725 | 858 ft | 129 kts | 206° |
| 2026-05-05 02:06 | 40.72767 | -74.14240 | 692 ft | 129 kts | 205° |
| 2026-05-05 02:06 | 40.71955 | -74.14762 | 523 ft | 130 kts | 205° |
| 2026-05-05 02:06 | 40.71144 | -74.15279 | 336 ft | 129 kts | 204° |
| 2026-05-05 02:06 | 40.70321 | -74.15797 | 169 ft | 132 kts | 205° |
| 2026-05-05 02:07 | 40.69503 | -74.16320 | 31 ft | 127 kts | 204° |
| 2026-05-05 02:07 | 40.68883 | -74.16710 | 27 ft | 58 kts | 206° |
| 2026-05-05 02:07 | 40.68617 | -74.16881 | 27 ft | 34 kts | 213° |
| 2026-05-05 02:07 | 40.68498 | -74.17065 | 28 ft | 25 kts | 237° |
| 2026-05-05 02:08 | 40.68460 | -74.17143 | 28 ft | 0 kts | 237° |
| 2026-05-05 02:08 | 40.68453 | -74.17157 | 28 ft | 3 kts | 237° |
| 2026-05-05 02:09 | 40.68451 | -74.17160 | 28 ft | 0 kts | 237° |
| 2026-05-05 02:10 | 40.68445 | -74.17176 | 28 ft | 5 kts | 248° |
| 2026-05-05 02:10 | 40.68442 | -74.17248 | 29 ft | 11 kts | 290° |
| 2026-05-05 02:11 | 40.68489 | -74.17363 | 29 ft | 17 kts | 297° |
| 2026-05-05 02:11 | 40.68560 | -74.17489 | 28 ft | 17 kts | 321° |
| 2026-05-05 02:11 | 40.68542 | -74.17592 | 28 ft | 16 kts | 202° |
| 2026-05-05 02:11 | 40.68438 | -74.17653 | 28 ft | 17 kts | 206° |
| 2026-05-05 02:12 | 40.68332 | -74.17731 | 27 ft | 17 kts | 235° |
| 2026-05-05 02:12 | 40.68368 | -74.18008 | 27 ft | 18 kts | 226° |
| 2026-05-05 02:12 | 40.68315 | -74.18115 | 27 ft | 12 kts | 233° |
| 2026-05-05 02:13 | 40.68296 | -74.18177 | 27 ft | 7 kts | 296° |
| 2026-05-05 02:13 | 40.68320 | -74.18213 | 27 ft | 4 kts | 320° |